Startpagina
METAR-TAF:

METAR-TAF

Vliegvelden :

Peer, België

Vliegbasis Kleine-Brogel

breedte: 51-10N, lengte: 005-28E, hoogte: 55 m

Actueel weer

Dit bericht is 46 minuten geleden gemaakt, om 00:25 UTC
Wind 4 kt uit het westzuidwesten
Temperatuur 6°C
Vochtigheid 93%
Druk 1016 hPa
Zicht 10 km of meer

METAR: EBBL 190025Z AUTO 25004KT 9999 FEW011/// SCT029/// BKN046/// 06/05 Q1016 BLU

Tijdstip: 02:11 (01:11 UTC)

Verwachting

Dit bericht is 9 uur en het 30 minuten geleden gemaakt, om 15:41 UTC
Verwachting geldig van 17 om 19 UTC tot 18 om 07 UTC
Wind 5 kt uit het zuidwesten
Zicht 10 km of meer
Weinig wolken op 2500 ft
Gebroken wolken op 3000 ft
Kans 40% :
Tijdelijke
van 17 om 19 UTC tot 17 om 22 UTC
Gebroken wolken op 2000 ft
Tijdelijke
van 18 om 00 UTC tot 18 om 07 UTC
Wind 3 kt uit variabele richting
Zicht: 4000 m
nevel

TAF: EBBL 171541Z 1719/1807 23005KT 9999 FEW025 BKN030 PROB40 TEMPO 1719/1722 BKN020 TEMPO 1800/1807 VRB03KT 4000 BR

Waarnemingen en weersverwachtingen van meer dan 4000 vliegvelden (METAR en TAF).

De beschikbare stations zijn de gele en rode punten op de kaart.

Ga met uw muis naar het station om de naam te zien.

Klik dan om waarnemingen en weersverwachtingen te zien.

kaart wijzigen: klik op de groene knoppen met een zwart kruis om in te zoomen, op de groene knop met een streepje om uit te zoomen of op de groene pijlen voor aangrenzende kaarten.


METAR-TAF: